Time;durP1;ratioP1;P1;durP2;ratioP2;P2;SDS_P1;SDS_P2;PMS_P1;PMS_P2;Temp;Humidity;BMP_temperature;BMP_pressure;BME280_temperature;BME280_humidity;BME280_pressure;Samples;Min_cycle;Max_cycle;Signal;HPM_P1;HPM_P2
2022/12/10 00:01:16;;;;;;;17.88;6.05;;;26.80;87.00;;;;;;5086080;28;20074;-56
2022/12/10 00:03:43;;;;;;;41.95;8.13;;;26.80;87.20;;;;;;5086044;28;20043;-52
2022/12/10 00:06:24;;;;;;;24.10;6.57;;;26.70;87.30;;;;;;5086089;28;20052;-55
2022/12/10 00:08:52;;;;;;;18.77;8.52;;;26.70;87.10;;;;;;5085167;28;20091;-54
2022/12/10 00:11:20;;;;;;;29.38;11.55;;;26.70;87.10;;;;;;5086058;28;20024;-52
2022/12/10 00:13:48;;;;;;;20.80;7.88;;;26.60;87.30;;;;;;5085673;28;20084;-54
2022/12/10 00:16:16;;;;;;;18.38;6.65;;;26.60;87.50;;;;;;5086295;28;20033;-55
2022/12/10 00:18:43;;;;;;;15.63;5.80;;;26.60;87.60;;;;;;5085763;28;20034;-54
2022/12/10 00:21:12;;;;;;;24.88;5.82;;;26.60;87.70;;;;;;5079762;28;20016;-52
2022/12/10 00:23:40;;;;;;;17.65;5.38;;;26.50;87.70;;;;;;5028022;28;20365;-55
2022/12/10 00:26:07;;;;;;;25.38;5.82;;;26.50;87.90;;;;;;5068657;28;20021;-54
2022/12/10 00:28:34;;;;;;;10.18;5.38;;;26.50;87.80;;;;;;5085402;28;20024;-52
2022/12/10 00:31:13;;;;;;;24.73;6.07;;;26.50;87.60;;;;;;5085761;28;20081;-54
2022/12/10 00:33:40;;;;;;;11.85;5.50;;;26.40;87.80;;;;;;5085580;28;20028;-53
2022/12/10 00:36:22;;;;;;;8.02;5.38;;;26.40;87.90;;;;;;5062989;28;20038;-55
2022/12/10 00:38:49;;;;;;;7.80;5.72;;;26.30;87.80;;;;;;4991392;28;20403;-53
2022/12/10 00:41:16;;;;;;;7.47;5.45;;;26.30;87.60;;;;;;5002790;28;20213;-53
2022/12/10 00:43:44;;;;;;;9.88;5.20;;;26.30;87.60;;;;;;5002826;28;20093;-52
2022/12/10 00:46:13;;;;;;;11.38;5.22;;;26.30;87.40;;;;;;5002790;28;20038;-54
2022/12/10 00:48:40;;;;;;;8.73;5.30;;;26.30;87.60;;;;;;5002665;28;20027;-55
2022/12/10 00:51:08;;;;;;;8.90;5.00;;;26.50;87.40;;;;;;5002707;28;20015;-54
2022/12/10 00:53:36;;;;;;;10.35;5.00;;;26.60;87.00;;;;;;5002726;28;20033;-51
2022/12/10 00:56:04;;;;;;;10.02;5.18;;;26.70;86.50;;;;;;5002547;28;20032;-55
2022/12/10 00:58:33;;;;;;;8.65;5.28;;;26.80;86.00;;;;;;5002841;28;20026;-56
2022/12/10 01:01:11;;;;;;;9.18;4.53;;;26.90;85.70;;;;;;5006838;28;20033;-54
2022/12/10 01:03:39;;;;;;;9.93;4.85;;;26.90;85.10;;;;;;5037965;28;20247;-53
2022/12/10 01:06:15;;;;;;;7.55;5.00;;;27.00;85.00;;;;;;5085714;28;20032;-54
2022/12/10 01:08:42;;;;;;;6.50;4.63;;;27.00;84.60;;;;;;5084655;28;20067;-56
2022/12/10 01:11:12;;;;;;;7.40;4.40;;;27.10;84.20;;;;;;5084850;28;20021;-54
2022/12/10 01:13:39;;;;;;;10.20;4.70;;;27.10;84.00;;;;;;5085946;28;20028;-56
2022/12/10 01:16:08;;;;;;;7.53;4.45;;;27.10;83.80;;;;;;5083618;28;20201;-55
2022/12/10 01:18:38;;;;;;;9.52;4.25;;;27.10;83.60;;;;;;5084778;28;20070;-57
2022/12/10 01:21:08;;;;;;;8.73;4.68;;;27.20;83.60;;;;;;5085003;28;20024;-57
2022/12/10 01:23:37;;;;;;;11.73;4.88;;;27.20;83.30;;;;;;5084543;28;20036;-53
2022/12/10 01:26:06;;;;;;;12.10;4.65;;;27.20;83.10;;;;;;5084350;28;20044;-54
2022/12/10 01:28:37;;;;;;;10.88;5.22;;;27.20;82.90;;;;;;5084281;28;20036;-54
2022/12/10 01:31:28;;;;;;;6.78;4.40;;;27.20;82.80;;;;;;5073938;28;20051;-54
2022/12/10 01:33:57;;;;;;;13.00;4.78;;;27.20;82.70;;;;;;4981528;28;20043;-53
2022/12/10 01:36:30;;;;;;;19.08;4.88;;;27.20;82.80;;;;;;4981541;28;20026;-54
2022/12/10 01:38:57;;;;;;;16.63;4.82;;;27.20;82.70;;;;;;4982668;28;20094;-54
2022/12/10 01:41:27;;;;;;;15.20;4.75;;;27.20;82.70;;;;;;4980358;28;20038;-54
2022/12/10 01:43:57;;;;;;;10.65;4.20;;;27.20;82.70;;;;;;4963282;29;20320;-52
2022/12/10 01:46:32;;;;;;;9.63;4.10;;;27.20;82.70;;;;;;4963112;28;20055;-52
2022/12/10 01:49:01;;;;;;;12.23;4.00;;;27.20;82.60;;;;;;4963094;28;20098;-55
2022/12/10 01:51:36;;;;;;;7.70;4.00;;;27.20;83.00;;;;;;4962968;28;20070;-55
2022/12/10 01:54:07;;;;;;;7.32;4.30;;;27.20;82.50;;;;;;4963040;29;20072;-56
2022/12/10 01:56:40;;;;;;;10.73;4.40;;;27.20;82.30;;;;;;4963156;29;20098;-53
2022/12/10 01:59:07;;;;;;;13.27;4.13;;;27.20;82.20;;;;;;4962858;29;20214;-54
2022/12/10 02:01:52;;;;;;;7.38;3.70;;;27.10;82.10;;;;;;4967239;28;20034;-55
2022/12/10 02:04:37;;;;;;;9.88;3.90;;;27.10;82.00;;;;;;4982210;28;20058;-54
2022/12/10 02:07:14;;;;;;;5.75;3.53;;;27.20;82.00;;;;;;4982409;28;20031;-55
2022/12/10 02:09:52;;;;;;;6.65;3.60;;;27.20;82.00;;;;;;4982101;28;20031;-56
2022/12/10 02:12:33;;;;;;;6.30;3.50;;;27.20;81.90;;;;;;4982075;28;20090;-57
2022/12/10 02:15:05;;;;;;;6.53;4.00;;;27.10;81.70;;;;;;4981983;28;20027;-55
2022/12/10 02:17:58;;;;;;;4.50;3.60;;;27.20;81.70;;;;;;4982513;28;20026;-55
2022/12/10 02:20:56;;;;;;;6.40;3.53;;;27.10;81.70;;;;;;4981834;28;20050;-55
2022/12/10 02:23:27;;;;;;;3.95;3.58;;;27.10;81.70;;;;;;4974242;28;20403;-54
2022/12/10 02:26:16;;;;;;;4.07;3.58;;;27.10;81.70;;;;;;4962784;28;20039;-53
2022/12/10 02:28:50;;;;;;;5.70;3.40;;;27.10;81.80;;;;;;5080754;28;20320;-54
2022/12/10 02:31:20;;;;;;;5.97;3.80;;;27.10;81.80;;;;;;5008159;28;20031;-57
2022/12/10 02:33:50;;;;;;;5.70;3.40;;;27.10;81.80;;;;;;4990829;28;20022;-56
2022/12/10 02:36:20;;;;;;;6.30;3.67;;;27.10;81.70;;;;;;4979443;28;20031;-58
2022/12/10 02:38:49;;;;;;;5.85;3.47;;;27.10;81.70;;;;;;4977740;28;20069;-56
2022/12/10 02:41:39;;;;;;;7.68;3.83;;;27.10;81.80;;;;;;4965847;29;20300;-55
2022/12/10 02:44:10;;;;;;;5.75;3.50;;;27.10;81.90;;;;;;4965762;29;20038;-59
2022/12/10 02:46:38;;;;;;;5.32;3.63;;;27.10;81.80;;;;;;5086184;28;20119;-57
2022/12/10 02:49:07;;;;;;;7.68;3.53;;;27.00;81.80;;;;;;5081684;28;20028;-62
2022/12/10 02:51:33;;;;;;;14.35;3.70;;;27.00;81.80;;;;;;5014937;28;20031;-56
2022/12/10 02:54:07;;;;;;;5.80;3.63;;;27.00;81.70;;;;;;5087296;28;20024;-54
2022/12/10 02:56:44;;;;;;;5.88;3.70;;;27.00;81.70;;;;;;5087556;28;20272;-56
2022/12/10 02:59:22;;;;;;;5.20;3.83;;;27.00;81.70;;;;;;5087164;28;20037;-54
2022/12/10 03:02:43;;;;;;;8.23;4.15;;;27.00;81.70;;;;;;5022903;28;20031;-55
2022/12/10 03:05:34;;;;;;;10.68;5.38;;;27.00;81.70;;;;;;5023618;28;20038;-54
2022/12/10 03:08:14;;;;;;;11.05;6.05;;;27.00;81.80;;;;;;4985935;28;20039;-56
2022/12/10 03:10:52;;;;;;;11.48;6.00;;;27.00;81.90;;;;;;5062234;28;20049;-54
2022/12/10 03:13:26;;;;;;;14.43;6.65;;;27.00;82.00;;;;;;5013323;28;20026;-56
2022/12/10 03:15:54;;;;;;;18.00;8.02;;;27.00;82.10;;;;;;4975826;28;20035;-57
2022/12/10 03:18:25;;;;;;;15.63;7.75;;;26.90;82.10;;;;;;4975109;28;20082;-54
2022/12/10 03:20:54;;;;;;;22.45;9.30;;;26.90;82.30;;;;;;4994150;28;20028;-56
2022/12/10 03:23:21;;;;;;;17.40;8.07;;;26.90;82.40;;;;;;5038801;28;20090;-55
2022/12/10 03:25:50;;;;;;;16.02;7.20;;;26.90;82.40;;;;;;4984548;28;20046;-58
2022/12/10 03:28:19;;;;;;;15.98;7.38;;;26.90;82.40;;;;;;4984544;28;20072;-55
2022/12/10 03:30:48;;;;;;;18.60;7.50;;;26.90;82.40;;;;;;4984846;28;20329;-55
2022/12/10 03:33:16;;;;;;;15.80;7.05;;;26.90;82.50;;;;;;4984575;28;20291;-55
2022/12/10 03:35:43;;;;;;;17.25;7.15;;;26.90;82.40;;;;;;5016424;28;20028;-56
2022/12/10 03:38:10;;;;;;;14.00;7.07;;;26.90;82.50;;;;;;5060521;28;20031;-56
2022/12/10 03:40:37;;;;;;;10.00;5.50;;;26.90;82.50;;;;;;5032248;28;20023;-58
2022/12/10 03:43:04;;;;;;;13.43;5.60;;;26.90;82.40;;;;;;4973024;28;20023;-57
2022/12/10 03:45:31;;;;;;;9.52;4.85;;;26.90;82.40;;;;;;4974989;28;20067;-54
2022/12/10 03:47:57;;;;;;;6.38;4.57;;;26.90;82.40;;;;;;5023559;28;20045;-56
2022/12/10 03:50:24;;;;;;;8.80;4.38;;;26.90;82.30;;;;;;4984251;28;20027;-56
2022/12/10 03:52:50;;;;;;;9.73;4.68;;;26.90;82.20;;;;;;4991744;28;20090;-52
2022/12/10 03:55:17;;;;;;;5.50;3.83;;;26.90;82.10;;;;;;5086305;28;20028;-52
2022/12/10 03:57:44;;;;;;;7.13;3.95;;;26.90;82.10;;;;;;5086156;28;20190;-55
2022/12/10 04:00:11;;;;;;;6.18;4.28;;;26.90;82.10;;;;;;5086094;28;20082;-55
2022/12/10 04:02:37;;;;;;;5.85;3.60;;;26.90;82.20;;;;;;5063701;28;20032;-56
2022/12/10 04:05:06;;;;;;;5.65;3.40;;;26.90;82.30;;;;;;5012408;28;20343;-55
2022/12/10 04:07:33;;;;;;;4.90;4.10;;;26.90;82.40;;;;;;4973202;28;20035;-54
2022/12/10 04:09:59;;;;;;;8.68;4.20;;;26.90;82.30;;;;;;4975580;28;20023;-54
2022/12/10 04:12:26;;;;;;;6.05;3.78;;;26.90;82.40;;;;;;4974597;28;20097;-55
2022/12/10 04:17:37;;;;;;;5.22;3.72;;;26.90;82.40;;;;;;4964394;28;20038;-55
2022/12/10 04:20:04;;;;;;;6.15;3.70;;;26.80;82.50;;;;;;4964320;29;20039;-55
2022/12/10 04:28:01;;;;;;;6.25;4.15;;;26.80;82.90;;;;;;4964295;29;20126;-55
2022/12/10 04:30:27;;;;;;;6.03;4.35;;;26.80;83.00;;;;;;4964328;29;20024;-55
2022/12/10 04:32:54;;;;;;;6.82;4.38;;;26.80;83.00;;;;;;4964180;29;20047;-54
2022/12/10 04:35:20;;;;;;;6.05;3.85;;;26.80;83.10;;;;;;4964297;29;20031;-55
2022/12/10 04:37:47;;;;;;;6.18;3.97;;;26.70;83.30;;;;;;4964156;28;20046;-55
2022/12/10 04:40:13;;;;;;;4.55;3.25;;;26.70;83.50;;;;;;4964073;29;20039;-54
2022/12/10 04:42:40;;;;;;;5.22;3.90;;;26.70;83.70;;;;;;5007932;28;20063;-55
2022/12/10 04:45:07;;;;;;;6.57;3.80;;;26.70;83.80;;;;;;5074231;28;20215;-54
2022/12/10 04:47:33;;;;;;;6.95;3.83;;;26.70;83.80;;;;;;4995298;28;20019;-56
2022/12/10 04:50:00;;;;;;;5.10;3.83;;;26.70;83.90;;;;;;4974344;28;20023;-55
2022/12/10 04:52:26;;;;;;;6.57;3.70;;;26.60;84.10;;;;;;4972200;28;20199;-55
2022/12/10 04:54:53;;;;;;;5.65;3.92;;;26.70;84.20;;;;;;4963946;29;20031;-55
2022/12/10 04:57:19;;;;;;;6.75;4.20;;;26.70;84.30;;;;;;4970855;28;20350;-54
2022/12/10 04:59:46;;;;;;;8.00;4.10;;;26.60;84.40;;;;;;5000650;28;20037;-54
2022/12/10 05:02:13;;;;;;;4.65;3.85;;;26.60;84.30;;;;;;4974203;28;20058;-53
2022/12/10 05:04:39;;;;;;;7.40;4.20;;;26.60;84.40;;;;;;5007153;28;20032;-53
2022/12/10 05:07:06;;;;;;;5.47;4.03;;;26.60;84.50;;;;;;5084817;28;20028;-53
2022/12/10 05:09:32;;;;;;;5.95;3.90;;;26.60;84.40;;;;;;5083426;28;20027;-53
2022/12/10 05:11:59;;;;;;;9.27;4.00;;;26.60;84.30;;;;;;5017670;28;20021;-53
2022/12/10 05:14:25;;;;;;;5.53;4.05;;;26.60;84.30;;;;;;5085046;28;20291;-53
2022/12/10 05:16:52;;;;;;;5.88;4.13;;;26.60;84.40;;;;;;4994433;28;20030;-55
2022/12/10 05:19:19;;;;;;;7.38;3.97;;;26.60;84.50;;;;;;4994279;28;20070;-53
2022/12/10 05:24:31;;;;;;;6.10;3.55;;;26.50;84.60;;;;;;4969067;28;20046;-53
2022/12/10 05:26:58;;;;;;;5.88;3.63;;;26.50;84.70;;;;;;4963749;29;20031;-53
2022/12/10 05:29:24;;;;;;;4.63;3.60;;;26.50;84.70;;;;;;4963951;28;20031;-58
2022/12/10 05:31:51;;;;;;;9.38;3.92;;;26.50;84.70;;;;;;4963261;29;20316;-58
2022/12/10 05:34:18;;;;;;;5.57;3.78;;;26.50;84.90;;;;;;5004111;28;20219;-53
2022/12/10 05:36:44;;;;;;;5.55;3.97;;;26.50;85.00;;;;;;4967978;28;20032;-53
2022/12/10 05:39:11;;;;;;;6.05;4.18;;;26.50;85.00;;;;;;4963534;29;20069;-53
2022/12/10 05:41:39;;;;;;;7.25;4.18;;;26.40;85.10;;;;;;5075606;28;20036;-55
2022/12/10 05:44:07;;;;;;;5.50;4.10;;;26.50;85.30;;;;;;4988498;28;20034;-54
2022/12/10 05:46:35;;;;;;;6.13;4.40;;;26.50;85.30;;;;;;4982865;28;20107;-53
2022/12/10 05:49:05;;;;;;;5.60;4.32;;;26.50;85.30;;;;;;5000959;28;20038;-52
2022/12/10 05:51:34;;;;;;;5.75;4.15;;;26.50;85.40;;;;;;5026811;28;20035;-52
2022/12/10 05:54:03;;;;;;;5.97;3.88;;;26.40;85.40;;;;;;5036586;28;20041;-52
2022/12/10 05:56:30;;;;;;;8.00;4.07;;;26.40;85.40;;;;;;5072438;28;20070;-51
2022/12/10 05:59:02;;;;;;;5.97;4.22;;;26.40;85.50;;;;;;5080848;28;20032;-51
2022/12/10 06:01:34;;;;;;;5.07;3.70;;;26.40;85.50;;;;;;5028058;28;20089;-52
2022/12/10 06:04:03;;;;;;;4.63;3.58;;;26.40;85.60;;;;;;5084482;28;20099;-56
2022/12/10 06:06:32;;;;;;;4.22;3.83;;;26.40;85.70;;;;;;5025203;28;20030;-55
2022/12/10 06:08:59;;;;;;;7.28;4.03;;;26.40;85.70;;;;;;4980272;28;20031;-51
2022/12/10 06:11:27;;;;;;;4.97;3.70;;;26.30;85.60;;;;;;4993371;28;20049;-52
2022/12/10 06:13:54;;;;;;;6.90;3.80;;;26.30;85.60;;;;;;4972589;28;20019;-55
2022/12/10 06:16:22;;;;;;;4.78;3.65;;;26.30;85.60;;;;;;4966337;28;20319;-54
2022/12/10 06:18:48;;;;;;;5.93;3.83;;;26.30;85.80;;;;;;4971487;28;20098;-53
2022/12/10 06:21:16;;;;;;;4.20;3.65;;;26.30;85.70;;;;;;4969658;28;20042;-55
2022/12/10 06:23:43;;;;;;;26.33;4.55;;;26.30;85.70;;;;;;5052882;28;20055;-52
2022/12/10 06:26:18;;;;;;;10.48;4.30;;;26.30;85.80;;;;;;5001835;28;20034;-51
2022/12/10 06:28:46;;;;;;;9.13;4.03;;;26.30;85.90;;;;;;5005824;28;20034;-51
2022/12/10 06:31:13;;;;;;;5.40;3.58;;;26.30;85.80;;;;;;4988278;28;20019;-52
2022/12/10 06:33:40;;;;;;;6.43;3.88;;;26.30;85.60;;;;;;4982193;28;20035;-51
2022/12/10 06:36:09;;;;;;;7.03;3.80;;;26.30;85.70;;;;;;5079659;28;20040;-52
2022/12/10 06:38:36;;;;;;;6.30;3.63;;;26.30;85.70;;;;;;5083913;28;20181;-54
2022/12/10 06:41:07;;;;;;;5.05;3.70;;;26.30;85.70;;;;;;5048830;28;20352;-52
2022/12/10 06:43:34;;;;;;;7.78;3.63;;;26.30;85.50;;;;;;4992271;28;20072;-51
2022/12/10 06:46:12;;;;;;;4.80;4.00;;;26.30;85.30;;;;;;5001043;28;20313;-51
2022/12/10 06:48:40;;;;;;;4.53;3.42;;;26.30;85.20;;;;;;5001201;28;20026;-52
2022/12/10 06:51:07;;;;;;;7.00;3.90;;;26.30;85.10;;;;;;4997479;28;20029;-53
2022/12/10 06:53:35;;;;;;;6.70;3.92;;;26.30;85.20;;;;;;4992659;28;20086;-51
2022/12/10 06:56:03;;;;;;;6.15;3.72;;;26.30;85.10;;;;;;5001012;28;20249;-53
2022/12/10 06:58:30;;;;;;;5.65;3.80;;;26.30;85.10;;;;;;4992907;28;20027;-52
2022/12/10 07:01:07;;;;;;;3.88;3.47;;;26.30;85.10;;;;;;4995331;28;20030;-52
2022/12/10 07:03:34;;;;;;;6.25;3.80;;;26.30;85.20;;;;;;4981673;28;20058;-53
2022/12/10 07:06:02;;;;;;;5.07;3.72;;;26.30;85.30;;;;;;4981446;28;20026;-52
2022/12/10 07:08:29;;;;;;;5.78;4.22;;;26.30;85.40;;;;;;4981441;28;20027;-58
2022/12/10 07:10:56;;;;;;;7.63;4.18;;;26.30;85.50;;;;;;4981503;28;20027;-52
2022/12/10 07:13:23;;;;;;;5.90;4.10;;;26.30;85.60;;;;;;4981640;28;20035;-52
2022/12/10 07:15:50;;;;;;;5.93;4.10;;;26.30;85.70;;;;;;4981297;28;20086;-47
2022/12/10 07:18:16;;;;;;;6.13;3.90;;;26.30;85.80;;;;;;4983887;28;20129;-52
2022/12/10 07:20:43;;;;;;;5.35;4.53;;;26.20;85.70;;;;;;4984657;28;20104;-53
2022/12/10 07:23:09;;;;;;;4.50;4.10;;;26.30;85.80;;;;;;4984683;28;20039;-50
2022/12/10 07:25:36;;;;;;;6.80;4.28;;;26.20;85.70;;;;;;4984616;28;20042;-54
2022/12/10 07:28:03;;;;;;;5.85;4.45;;;26.20;85.80;;;;;;4984465;28;20061;-52
2022/12/10 07:30:29;;;;;;;6.80;4.72;;;26.30;86.00;;;;;;4984615;28;20342;-51
2022/12/10 07:32:56;;;;;;;6.60;4.55;;;26.20;86.10;;;;;;5005683;28;20032;-53
2022/12/10 07:35:22;;;;;;;9.23;5.60;;;26.20;86.20;;;;;;5086785;28;20030;-52
2022/12/10 07:37:49;;;;;;;10.00;5.53;;;26.20;86.40;;;;;;5071651;28;20529;-52
2022/12/10 07:40:15;;;;;;;9.48;6.30;;;26.20;86.40;;;;;;4993844;28;20038;-52
2022/12/10 07:42:42;;;;;;;9.82;6.72;;;26.20;86.60;;;;;;5010989;28;20022;-53
2022/12/10 07:45:09;;;;;;;12.77;7.13;;;26.20;86.60;;;;;;5021956;28;20086;-51
2022/12/10 07:47:39;;;;;;;12.20;7.88;;;26.20;86.70;;;;;;4994306;28;20081;-51
2022/12/10 07:50:06;;;;;;;14.00;7.30;;;26.20;86.80;;;;;;4984190;28;20081;-52
2022/12/10 07:52:33;;;;;;;11.57;7.15;;;26.10;86.80;;;;;;4984189;28;20023;-54
2022/12/10 07:54:59;;;;;;;13.57;6.88;;;26.10;86.90;;;;;;4984047;28;20094;-52
2022/12/10 07:57:26;;;;;;;11.18;5.88;;;26.10;86.90;;;;;;4984151;28;20080;-51
2022/12/10 07:59:52;;;;;;;8.60;5.57;;;26.10;86.90;;;;;;4984595;28;20038;-51
2022/12/10 08:02:19;;;;;;;8.63;5.40;;;26.10;87.00;;;;;;4984242;28;20034;-57
2022/12/10 08:04:46;;;;;;;8.43;5.45;;;26.20;87.10;;;;;;4984503;28;20106;-52
2022/12/10 08:07:12;;;;;;;6.95;5.22;;;26.10;87.10;;;;;;4983879;28;20086;-51
2022/12/10 08:09:39;;;;;;;6.40;4.78;;;26.10;87.20;;;;;;5005457;28;20020;-51
2022/12/10 08:12:05;;;;;;;6.50;4.85;;;26.10;87.30;;;;;;5085940;28;20094;-52
2022/12/10 08:14:32;;;;;;;7.68;4.47;;;26.10;87.30;;;;;;5086342;28;20047;-51
2022/12/10 08:16:58;;;;;;;5.13;4.32;;;26.10;87.40;;;;;;5085786;28;20037;-53
2022/12/10 08:19:25;;;;;;;5.15;4.65;;;26.10;87.50;;;;;;5086357;28;20043;-52
2022/12/10 08:21:52;;;;;;;5.95;4.60;;;26.10;87.60;;;;;;5085715;28;20340;-51
2022/12/10 08:24:19;;;;;;;5.57;4.63;;;26.10;87.80;;;;;;5085994;28;20040;-52
2022/12/10 08:26:45;;;;;;;5.20;4.45;;;26.10;87.90;;;;;;5085632;28;20027;-51
2022/12/10 08:29:12;;;;;;;6.22;4.50;;;26.10;88.00;;;;;;5085207;28;20061;-51
2022/12/10 08:31:38;;;;;;;6.28;5.05;;;26.10;88.10;;;;;;5085431;28;20039;-50
2022/12/10 08:34:11;;;;;;;7.65;4.50;;;26.10;88.20;;;;;;5059065;28;20033;-51
2022/12/10 08:36:38;;;;;;;5.13;4.63;;;26.10;88.30;;;;;;4992930;28;20038;-51
2022/12/10 08:39:04;;;;;;;6.25;5.00;;;26.10;88.40;;;;;;4994855;28;20057;-54
2022/12/10 08:41:31;;;;;;;6.25;4.93;;;26.10;88.50;;;;;;4985394;28;20033;-52
2022/12/10 08:43:58;;;;;;;6.15;5.15;;;26.10;88.60;;;;;;4992368;28;20027;-51
2022/12/10 08:46:26;;;;;;;6.93;5.28;;;26.10;88.60;;;;;;5084916;28;20044;-49
2022/12/10 08:48:52;;;;;;;5.65;4.80;;;26.20;88.70;;;;;;5085360;28;20048;-53
2022/12/10 08:51:20;;;;;;;7.03;5.47;;;26.20;88.80;;;;;;5085070;28;20070;-57
2022/12/10 08:53:47;;;;;;;6.03;5.13;;;26.20;88.80;;;;;;5085581;28;20024;-50
2022/12/10 08:56:14;;;;;;;7.30;5.50;;;26.20;88.90;;;;;;5065431;28;20027;-52
2022/12/10 08:58:41;;;;;;;8.70;5.47;;;26.20;89.10;;;;;;4989150;28;20326;-52
2022/12/10 09:01:16;;;;;;;5.72;4.90;;;26.20;89.10;;;;;;4993735;28;20022;-52
2022/12/10 09:03:45;;;;;;;8.50;5.30;;;26.20;89.20;;;;;;5002436;28;20037;-51
2022/12/10 09:06:16;;;;;;;7.15;5.30;;;26.20;89.30;;;;;;4983006;28;20022;-53
2022/12/10 09:08:43;;;;;;;7.47;4.72;;;26.20;89.40;;;;;;4983225;28;20240;-55
2022/12/10 09:11:14;;;;;;;5.82;5.03;;;26.20;89.40;;;;;;4983261;28;20030;-53
2022/12/10 09:13:40;;;;;;;6.70;4.75;;;26.30;89.50;;;;;;5000931;28;20214;-52
2022/12/10 09:16:07;;;;;;;8.88;5.43;;;26.30;89.50;;;;;;5002335;28;20014;-53
2022/12/10 09:18:34;;;;;;;6.78;4.95;;;26.30;89.50;;;;;;5002477;28;20093;-52
2022/12/10 09:21:04;;;;;;;6.95;5.50;;;26.30;89.50;;;;;;5002368;28;20014;-51
2022/12/10 09:23:30;;;;;;;8.68;5.03;;;26.30;89.60;;;;;;5002358;28;20035;-53
2022/12/10 09:25:57;;;;;;;6.93;5.40;;;26.30;89.50;;;;;;5002168;28;20060;-52
2022/12/10 09:28:23;;;;;;;9.30;5.32;;;26.30;89.50;;;;;;5002098;28;20037;-53
2022/12/10 09:30:58;;;;;;;10.40;5.47;;;26.30;89.60;;;;;;5018133;28;20192;-54
2022/12/10 09:33:26;;;;;;;7.82;5.60;;;26.30;89.70;;;;;;5084599;28;20028;-54
2022/12/10 09:35:53;;;;;;;6.80;5.38;;;26.30;89.70;;;;;;5084323;28;20096;-51
2022/12/10 09:38:20;;;;;;;6.43;5.50;;;26.30;89.80;;;;;;5084465;28;20051;-53
2022/12/10 09:41:12;;;;;;;6.05;5.45;;;26.30;89.80;;;;;;5083304;28;20024;-52
2022/12/10 09:43:38;;;;;;;;;;;26.30;89.80;;;;;;5056574;28;20392;-53
2022/12/10 09:46:26;;;;;;;8.45;5.50;;;26.30;89.80;;;;;;5084048;28;19919;-52
2022/12/10 09:49:14;;;;;;;7.38;5.53;;;26.30;90.00;;;;;;5084382;28;20082;-53
2022/12/10 09:51:41;;;;;;;7.57;5.68;;;26.30;90.00;;;;;;5083982;28;20019;-53
2022/12/10 09:54:36;;;;;;;8.13;5.70;;;26.30;90.10;;;;;;5084366;28;20038;-51
2022/12/10 09:57:05;;;;;;;6.50;5.90;;;26.30;90.10;;;;;;5078904;28;20032;-52
2022/12/10 09:59:46;;;;;;;8.48;5.65;;;26.30;90.10;;;;;;5084557;28;20309;-51
2022/12/10 10:02:26;;;;;;;8.52;5.45;;;26.30;90.20;;;;;;5083849;28;20083;-51
2022/12/10 10:05:11;;;;;;;11.55;5.40;;;26.30;90.10;;;;;;5084504;28;20211;-52
2022/12/10 10:07:55;;;;;;;7.07;5.40;;;26.30;90.10;;;;;;5083647;28;20024;-54
2022/12/10 10:10:28;;;;;;;6.32;4.57;;;26.30;90.00;;;;;;5084025;28;20036;-53
2022/12/10 10:13:19;;;;;;;8.20;4.78;;;26.30;90.00;;;;;;5083710;28;20037;-59
2022/12/10 10:15:46;;;;;;;5.95;4.47;;;26.30;90.00;;;;;;5083784;28;20065;-54
2022/12/10 10:18:36;;;;;;;7.13;4.68;;;26.30;90.00;;;;;;5083795;28;20033;-52
2022/12/10 10:21:07;;;;;;;8.40;5.05;;;26.20;89.90;;;;;;5083681;28;20032;-54
2022/12/10 10:23:34;;;;;;;7.50;5.28;;;26.30;90.00;;;;;;5084148;28;20239;-53
2022/12/10 10:26:01;;;;;;;7.15;5.18;;;26.20;90.00;;;;;;5083753;28;20103;-52
2022/12/10 10:28:28;;;;;;;6.95;4.85;;;26.20;90.10;;;;;;5083712;28;20146;-52
2022/12/10 10:30:55;;;;;;;7.68;4.68;;;26.20;90.10;;;;;;5083599;28;20032;-52
2022/12/10 10:33:22;;;;;;;6.35;5.20;;;26.20;90.10;;;;;;5083924;28;20025;-55
2022/12/10 10:35:53;;;;;;;6.88;5.13;;;26.20;90.20;;;;;;5083661;28;20209;-52
2022/12/10 10:38:23;;;;;;;6.22;5.35;;;26.20;90.20;;;;;;5068280;28;20046;-52
2022/12/10 10:41:02;;;;;;;7.95;5.60;;;26.20;90.20;;;;;;4975310;28;20227;-53
2022/12/10 10:43:41;;;;;;;8.55;5.38;;;26.20;90.20;;;;;;4973575;28;20107;-52
2022/12/10 10:46:12;;;;;;;9.10;5.90;;;26.20;90.20;;;;;;4966306;28;20371;-54
2022/12/10 10:48:39;;;;;;;9.05;5.95;;;26.20;90.20;;;;;;4970954;28;20070;-53
2022/12/10 10:51:23;;;;;;;9.25;5.57;;;26.20;90.30;;;;;;4962278;29;20031;-52
2022/12/10 10:53:52;;;;;;;11.30;5.65;;;26.20;90.30;;;;;;4965714;28;20028;-53
2022/12/10 10:56:37;;;;;;;12.32;5.93;;;26.20;90.30;;;;;;4966020;28;20030;-53
2022/12/10 10:59:26;;;;;;;11.43;6.03;;;26.20;90.30;;;;;;4966026;28;20108;-53
2022/12/10 11:01:59;;;;;;;12.52;6.07;;;26.20;90.40;;;;;;4970626;28;20361;-53
2022/12/10 11:04:44;;;;;;;9.90;6.53;;;26.20;90.40;;;;;;4965633;28;20077;-49
2022/12/10 11:07:20;;;;;;;17.15;6.22;;;26.20;90.40;;;;;;4971839;28;20050;-54
2022/12/10 11:09:48;;;;;;;13.63;6.47;;;26.20;90.50;;;;;;4974496;28;20295;-55
2022/12/10 11:12:37;;;;;;;14.32;6.70;;;26.20;90.50;;;;;;4977211;28;20038;-53
2022/12/10 11:15:31;;;;;;;19.40;6.85;;;26.20;90.60;;;;;;4970109;28;20043;-53
2022/12/10 11:17:59;;;;;;;9.25;5.38;;;26.20;90.60;;;;;;4947472;28;20383;-51
2022/12/10 11:20:33;;;;;;;37.70;7.40;;;26.20;90.80;;;;;;4974507;28;20035;-52
2022/12/10 11:23:08;;;;;;;29.10;6.63;;;26.10;90.80;;;;;;4973222;28;20042;-54
2022/12/10 11:26:02;;;;;;;12.77;5.75;;;26.10;90.80;;;;;;4964520;29;20047;-53
2022/12/10 11:28:59;;;;;;;16.65;6.28;;;26.10;90.70;;;;;;4964311;28;20211;-53
2022/12/10 11:31:51;;;;;;;14.30;6.10;;;26.20;90.70;;;;;;4968646;28;20247;-53
2022/12/10 11:34:18;;;;;;;;;;;26.20;90.70;;;;;;4969041;28;20338;-52
2022/12/10 11:36:50;;;;;;;15.77;5.50;;;26.20;90.70;;;;;;4965522;28;19906;-53
2022/12/10 11:39:33;;;;;;;;;;;26.20;90.70;;;;;;4965931;28;20047;-53
2022/12/10 11:42:13;;;;;;;13.57;5.97;;;26.20;90.60;;;;;;4968049;28;19906;-53
2022/12/10 11:45:01;;;;;;;12.88;5.88;;;26.30;90.70;;;;;;4978122;28;20309;-53
2022/12/10 11:47:55;;;;;;;15.00;5.95;;;26.30;90.70;;;;;;4984397;28;20035;-53
2022/12/10 11:50:27;;;;;;;12.93;6.00;;;26.30;90.70;;;;;;4984118;28;20034;-54
2022/12/10 11:53:21;;;;;;;11.75;5.47;;;26.30;90.60;;;;;;4974019;28;20069;-53
2022/12/10 11:55:50;;;;;;;8.57;5.22;;;26.40;90.60;;;;;;4973247;28;20063;-50
2022/12/10 11:58:40;;;;;;;10.73;5.43;;;26.40;90.60;;;;;;4973373;28;20039;-53
2022/12/10 12:01:10;;;;;;;10.27;5.38;;;26.40;90.50;;;;;;4964647;28;20316;-53
2022/12/10 12:04:09;;;;;;;10.52;5.35;;;26.40;90.50;;;;;;4963972;28;20062;-54
2022/12/10 12:06:36;;;;;;;6.90;5.45;;;26.50;90.40;;;;;;4963867;28;20066;-56
2022/12/10 12:09:27;;;;;;;12.60;5.00;;;26.50;90.40;;;;;;4968226;28;20042;-52
2022/12/10 12:12:16;;;;;;;10.77;5.75;;;26.50;90.30;;;;;;4964607;28;20031;-51
2022/12/10 12:14:56;;;;;;;10.95;5.22;;;26.60;90.30;;;;;;4965006;28;20077;-47
2022/12/10 12:17:34;;;;;;;9.60;5.00;;;26.60;90.30;;;;;;4975145;28;20322;-50
2022/12/10 12:20:19;;;;;;;11.45;5.80;;;26.60;90.20;;;;;;4971614;28;20039;-53
2022/12/10 12:22:58;;;;;;;11.15;5.32;;;26.60;90.30;;;;;;4965511;28;20035;-51
2022/12/10 12:25:35;;;;;;;5.07;4.57;;;26.70;90.30;;;;;;4964296;28;20354;-55
2022/12/10 12:28:10;;;;;;;6.55;5.00;;;26.70;90.30;;;;;;4964229;29;20027;-53
2022/12/10 12:30:39;;;;;;;7.70;5.10;;;26.70;90.20;;;;;;4974346;28;20027;-53
2022/12/10 12:33:16;;;;;;;8.07;5.00;;;26.70;90.30;;;;;;4965111;28;20027;-56
2022/12/10 12:36:06;;;;;;;12.07;5.05;;;26.80;90.30;;;;;;4964554;28;20030;-51
2022/12/10 12:38:46;;;;;;;25.83;6.07;;;26.80;90.30;;;;;;4978967;28;20102;-50
2022/12/10 12:41:40;;;;;;;6.72;5.60;;;26.80;90.20;;;;;;4970115;28;20062;-51
2022/12/10 12:44:13;;;;;;;11.35;5.30;;;26.90;90.30;;;;;;4964184;29;20030;-50
2022/12/10 12:46:50;;;;;;;7.78;4.60;;;26.90;90.20;;;;;;4963825;29;20054;-52
2022/12/10 12:49:37;;;;;;;7.50;4.95;;;26.90;90.20;;;;;;4974597;28;20028;-52
2022/12/10 12:52:18;;;;;;;10.00;5.65;;;26.90;90.20;;;;;;5009986;28;20027;-52
2022/12/10 12:54:46;;;;;;;7.47;5.27;;;26.90;90.10;;;;;;4973817;28;20026;-52
2022/12/10 12:57:29;;;;;;;6.38;5.20;;;27.00;90.10;;;;;;4979302;28;20286;-61
2022/12/10 13:00:10;;;;;;;8.93;5.68;;;27.00;90.20;;;;;;4966691;28;20035;-53
2022/12/10 13:02:53;;;;;;;8.85;5.32;;;27.00;90.10;;;;;;4963029;28;20118;-53
2022/12/10 13:05:33;;;;;;;7.82;5.70;;;27.10;90.20;;;;;;4966274;28;20031;-51
2022/12/10 13:08:17;;;;;;;9.50;5.50;;;27.10;90.20;;;;;;4974258;28;20035;-51
2022/12/10 13:11:11;;;;;;;9.30;4.97;;;27.10;90.10;;;;;;4963862;29;20038;-52
2022/12/10 13:13:57;;;;;;;6.78;5.10;;;27.10;90.10;;;;;;4973495;28;20105;-52
2022/12/10 13:16:45;;;;;;;8.82;5.43;;;27.20;90.10;;;;;;4982295;28;20034;-55
2022/12/10 13:19:21;;;;;;;9.50;5.68;;;27.20;90.00;;;;;;4982847;28;20054;-53
2022/12/10 13:22:31;;;;;;;6.35;5.40;;;27.20;90.00;;;;;;4983186;28;20071;-55